Harveyville, Kansas
Current Conditions -  °F | °C
As of 4:53 AM on Friday 31 Oct 2014 (Local Time) from KFOE Reporting Station
Overcast Overcast  
Wind Chill: 31°   Ceiling: 2400
Heat Index: 41°   Visibility: 10mi
Dew Point: 30°   Wind: 22mph
Humidity: 65%   Direction: 10°N
Pressure: 30.38"   Gusts: 36mph
Location:  38.79°N, 95.96°W
Report Text: KFOE 310953Z AUTO 01019G31KT 10SM OVC024 05/M01 A3038 RMK AO2 PK WND 01031/0951 SLP286 T00501011
Loading
Personal Weather Stations






























Interactive Weather Map
Tropical Storm Tracking
New forecast layout! Learn more

10-Day Weather Forecast

Advertisements
Track Severe Weather on mobile